Time;durP1;ratioP1;P1;durP2;ratioP2;P2;SDS_P1;SDS_P2;PMS_P1;PMS_P2;Temp;Humidity;BMP_temperature;BMP_pressure;BME280_temperature;BME280_humidity;BME280_pressure;Samples;Min_cycle;Max_cycle;Signal;HPM_P1;HPM_P2
2023/12/22 00:01:59;;;;;;;20.83;3.23;;;;;;;;;;6305514;22;20225;-78
2023/12/22 00:04:27;;;;;;;17.90;4.20;;;;;;;;;;6305733;22;20734;-78
2023/12/22 00:06:54;;;;;;;20.13;3.93;;;;;;;;;;6306658;22;20253;-78
2023/12/22 00:09:23;;;;;;;16.97;3.03;;;;;;;;;;6306187;22;20557;-77
2023/12/22 00:11:50;;;;;;;15.60;2.73;;;;;;;;;;6306430;22;20194;-77
2023/12/22 00:14:17;;;;;;;17.73;3.00;;;;;;;;;;6305950;22;20256;-77
2023/12/22 00:16:44;;;;;;;22.03;3.30;;;;;;;;;;6305990;22;20592;-77
2023/12/22 00:19:12;;;;;;;16.17;2.60;;;;;;;;;;6306258;22;20174;-78
2023/12/22 00:21:39;;;;;;;16.70;3.00;;;;;;;;;;6306073;22;20170;-78
2023/12/22 00:24:06;;;;;;;14.27;3.00;;;;;;;;;;6307378;22;20248;-78
2023/12/22 00:26:35;;;;;;;12.33;2.80;;;;;;;;;;6306561;22;20850;-78
2023/12/22 00:29:02;;;;;;;15.43;2.77;;;;;;;;;;6306725;22;20170;-78
2023/12/22 00:31:30;;;;;;;13.63;2.63;;;;;;;;;;6305907;22;20701;-78
2023/12/22 00:33:57;;;;;;;19.33;3.47;;;;;;;;;;6306921;22;20162;-78
2023/12/22 00:36:24;;;;;;;13.57;2.50;;;;;;;;;;6306530;22;20250;-78
2023/12/22 00:38:51;;;;;;;15.77;2.63;;;;;;;;;;6307081;22;20186;-78
2023/12/22 00:41:19;;;;;;;15.93;2.50;;;;;;;;;;6305697;22;20194;-77
2023/12/22 00:43:47;;;;;;;16.17;2.63;;;;;;;;;;6306761;22;20213;-78
2023/12/22 00:46:14;;;;;;;17.00;3.10;;;;;;;;;;6306197;22;20720;-78
2023/12/22 00:48:42;;;;;;;15.53;2.30;;;;;;;;;;6306105;22;20194;-77
2023/12/22 00:51:09;;;;;;;16.07;2.37;;;;;;;;;;6305774;22;20546;-78
2023/12/22 00:53:36;;;;;;;15.40;2.43;;;;;;;;;;6306581;22;20197;-77
2023/12/22 00:56:04;;;;;;;14.30;2.33;;;;;;;;;;6306270;22;20220;-77
2023/12/22 00:58:31;;;;;;;12.27;2.67;;;;;;;;;;6305089;22;20192;-78
2023/12/22 01:00:59;;;;;;;12.77;2.20;;;;;;;;;;6306211;22;20718;-78
2023/12/22 01:03:26;;;;;;;9.47;2.43;;;;;;;;;;6306194;22;20178;-77
2023/12/22 01:05:53;;;;;;;17.67;2.90;;;;;;;;;;6305461;22;20248;-78
2023/12/22 01:08:21;;;;;;;18.33;3.10;;;;;;;;;;6305961;22;20253;-78
2023/12/22 01:10:48;;;;;;;14.40;2.70;;;;;;;;;;6306463;22;20479;-78
2023/12/22 01:13:16;;;;;;;14.07;2.20;;;;;;;;;;6304907;22;20418;-78
2023/12/22 01:15:44;;;;;;;14.27;2.50;;;;;;;;;;6306063;22;20209;-77
2023/12/22 01:18:12;;;;;;;12.33;2.43;;;;;;;;;;6306655;22;20208;-77
2023/12/22 01:20:39;;;;;;;16.03;2.33;;;;;;;;;;6306230;22;20173;-78
2023/12/22 01:23:07;;;;;;;16.93;2.83;;;;;;;;;;6305950;22;20249;-78
2023/12/22 01:25:34;;;;;;;16.63;2.50;;;;;;;;;;6305904;22;20167;-78
2023/12/22 01:28:01;;;;;;;16.40;2.47;;;;;;;;;;6306563;22;20260;-78
2023/12/22 01:30:28;;;;;;;13.97;2.53;;;;;;;;;;6306982;22;20196;-77
2023/12/22 01:32:55;;;;;;;12.53;2.50;;;;;;;;;;6306328;22;20198;-78
2023/12/22 01:35:24;;;;;;;17.77;2.90;;;;;;;;;;6306301;22;20173;-77
2023/12/22 01:37:51;;;;;;;13.80;2.77;;;;;;;;;;6307069;22;20276;-78
2023/12/22 01:40:18;;;;;;;12.00;2.40;;;;;;;;;;6306315;22;20198;-78
2023/12/22 01:42:46;;;;;;;19.10;2.80;;;;;;;;;;6306078;22;20201;-78
2023/12/22 01:45:13;;;;;;;12.73;2.20;;;;;;;;;;6305143;22;20508;-78
2023/12/22 01:47:40;;;;;;;15.50;2.30;;;;;;;;;;6305456;22;20498;-76
2023/12/22 01:50:10;;;;;;;17.67;2.47;;;;;;;;;;6305662;22;20558;-78
2023/12/22 01:52:39;;;;;;;14.73;2.57;;;;;;;;;;6306430;22;20165;-78
2023/12/22 01:55:07;;;;;;;16.23;2.40;;;;;;;;;;6305811;22;20215;-78
2023/12/22 01:57:35;;;;;;;15.60;2.27;;;;;;;;;;6305453;22;20238;-78
2023/12/22 02:00:03;;;;;;;18.10;2.07;;;;;;;;;;6308286;22;20199;-78
2023/12/22 02:02:31;;;;;;;15.17;2.67;;;;;;;;;;6307971;22;20165;-77
2023/12/22 02:04:58;;;;;;;12.60;2.23;;;;;;;;;;6306917;22;20204;-79
2023/12/22 02:07:25;;;;;;;16.77;2.57;;;;;;;;;;6308583;22;20219;-77
2023/12/22 02:09:56;;;;;;;18.50;2.70;;;;;;;;;;6308586;22;20169;-78
2023/12/22 02:12:23;;;;;;;13.03;2.00;;;;;;;;;;6307868;22;20169;-78
2023/12/22 02:14:50;;;;;;;14.27;2.63;;;;;;;;;;6307157;22;20253;-77
2023/12/22 02:17:22;;;;;;;15.83;2.57;;;;;;;;;;6306511;22;20702;-77
2023/12/22 02:19:50;;;;;;;8.43;1.93;;;;;;;;;;6307121;22;20166;-77
2023/12/22 02:22:17;;;;;;;14.73;3.10;;;;;;;;;;6306159;22;20738;-77
2023/12/22 02:24:46;;;;;;;15.23;2.93;;;;;;;;;;6306226;22;20253;-77
2023/12/22 02:27:18;;;;;;;13.43;1.60;;;;;;;;;;6306695;22;20628;-78
2023/12/22 02:29:49;;;;;;;15.90;2.13;;;;;;;;;;6307788;22;20249;-78
2023/12/22 02:32:22;;;;;;;14.60;2.57;;;;;;;;;;6308237;22;20200;-77
2023/12/22 02:34:50;;;;;;;16.63;3.20;;;;;;;;;;6307509;22;20696;-76
2023/12/22 02:37:18;;;;;;;14.10;2.03;;;;;;;;;;6307207;22;20225;-78
2023/12/22 02:39:47;;;;;;;14.23;2.20;;;;;;;;;;6307047;22;20632;-78
2023/12/22 02:42:15;;;;;;;15.70;2.50;;;;;;;;;;6307318;22;20188;-78
2023/12/22 02:44:42;;;;;;;16.80;2.20;;;;;;;;;;6307138;22;20201;-77
2023/12/22 02:47:09;;;;;;;14.60;2.20;;;;;;;;;;6307174;22;20182;-77
2023/12/22 02:49:36;;;;;;;11.03;2.23;;;;;;;;;;6306598;22;20162;-78
2023/12/22 02:52:03;;;;;;;11.27;2.10;;;;;;;;;;6306910;22;20227;-78
2023/12/22 02:54:32;;;;;;;14.97;2.00;;;;;;;;;;6306681;22;20674;-76
2023/12/22 02:57:01;;;;;;;18.37;2.17;;;;;;;;;;6307357;22;20176;-77
2023/12/22 02:59:28;;;;;;;16.20;2.37;;;;;;;;;;6307360;22;20538;-78
2023/12/22 03:01:55;;;;;;;15.23;2.37;;;;;;;;;;6306904;22;20624;-78
2023/12/22 03:04:23;;;;;;;10.60;2.20;;;;;;;;;;6307655;22;20261;-78
2023/12/22 03:06:50;;;;;;;13.90;2.00;;;;;;;;;;6307186;22;20667;-77
2023/12/22 03:09:17;;;;;;;11.67;1.87;;;;;;;;;;6305558;22;20523;-77
2023/12/22 03:11:44;;;;;;;12.77;2.00;;;;;;;;;;6307296;22;20620;-78
2023/12/22 03:14:13;;;;;;;8.67;1.83;;;;;;;;;;6306003;22;20209;-78
2023/12/22 03:16:41;;;;;;;9.73;1.63;;;;;;;;;;6307597;22;20204;-78
2023/12/22 03:19:08;;;;;;;7.73;1.70;;;;;;;;;;6307074;22;20285;-77
2023/12/22 03:21:35;;;;;;;12.33;1.90;;;;;;;;;;6306301;22;20215;-78
2023/12/22 03:24:02;;;;;;;11.10;1.53;;;;;;;;;;6305426;22;20197;-78
2023/12/22 03:26:29;;;;;;;13.27;2.13;;;;;;;;;;6307041;22;20173;-77
2023/12/22 03:28:57;;;;;;;9.20;1.53;;;;;;;;;;6307042;22;20181;-78
2023/12/22 03:31:25;;;;;;;6.57;1.60;;;;;;;;;;6305882;22;20501;-78
2023/12/22 03:33:52;;;;;;;11.57;2.23;;;;;;;;;;6307234;22;20245;-78
2023/12/22 03:36:20;;;;;;;12.00;1.97;;;;;;;;;;6306712;22;20197;-77
2023/12/22 03:38:47;;;;;;;12.67;2.23;;;;;;;;;;6306207;22;20229;-78
2023/12/22 03:41:14;;;;;;;14.10;1.80;;;;;;;;;;6306261;22;20170;-78
2023/12/22 03:43:41;;;;;;;9.73;1.50;;;;;;;;;;6307004;22;20257;-78
2023/12/22 03:46:09;;;;;;;11.73;2.07;;;;;;;;;;6307218;22;20253;-78
2023/12/22 03:48:37;;;;;;;12.50;2.00;;;;;;;;;;6307050;22;20166;-79
2023/12/22 03:51:05;;;;;;;14.37;1.47;;;;;;;;;;6307141;22;20252;-78
2023/12/22 03:53:32;;;;;;;12.50;2.00;;;;;;;;;;6307248;22;20272;-78
2023/12/22 03:55:59;;;;;;;12.77;1.77;;;;;;;;;;6307213;22;20249;-78
2023/12/22 03:58:26;;;;;;;11.53;1.80;;;;;;;;;;6306980;22;20284;-78
2023/12/22 04:00:53;;;;;;;16.23;1.80;;;;;;;;;;6307584;22;20251;-78
2023/12/22 04:03:20;;;;;;;10.97;1.47;;;;;;;;;;6307247;22;20197;-78
2023/12/22 04:05:49;;;;;;;10.43;1.80;;;;;;;;;;6307665;22;20249;-78
2023/12/22 04:08:16;;;;;;;12.57;1.40;;;;;;;;;;6307551;22;20174;-79
2023/12/22 04:10:44;;;;;;;8.77;1.70;;;;;;;;;;6306484;22;20249;-77
2023/12/22 04:13:11;;;;;;;9.17;1.43;;;;;;;;;;6306012;22;20192;-77
2023/12/22 04:15:38;;;;;;;9.47;1.20;;;;;;;;;;6307441;22;20707;-78
2023/12/22 04:18:06;;;;;;;11.73;1.43;;;;;;;;;;6306165;22;20229;-78
2023/12/22 04:20:33;;;;;;;13.03;1.40;;;;;;;;;;6306380;22;20479;-78
2023/12/22 04:23:02;;;;;;;6.87;1.13;;;;;;;;;;6305757;22;20197;-79
2023/12/22 04:25:29;;;;;;;9.23;1.73;;;;;;;;;;6306705;22;20201;-78
2023/12/22 04:27:56;;;;;;;7.73;1.20;;;;;;;;;;6306882;22;20201;-78
2023/12/22 04:30:23;;;;;;;7.53;1.37;;;;;;;;;;6306353;22;20248;-77
2023/12/22 04:32:50;;;;;;;9.07;1.50;;;;;;;;;;6307067;22;20204;-78
2023/12/22 04:35:17;;;;;;;6.80;1.27;;;;;;;;;;6306249;22;20206;-78
2023/12/22 04:37:44;;;;;;;6.83;1.00;;;;;;;;;;6306517;22;20197;-78
2023/12/22 04:40:13;;;;;;;6.70;1.23;;;;;;;;;;6306706;22;20272;-78
2023/12/22 04:42:41;;;;;;;8.87;1.10;;;;;;;;;;6305497;22;20277;-78
2023/12/22 04:45:09;;;;;;;7.37;1.43;;;;;;;;;;6306740;22;20256;-78
2023/12/22 04:47:36;;;;;;;7.57;1.23;;;;;;;;;;6307040;22;20169;-78
2023/12/22 04:50:03;;;;;;;9.13;1.67;;;;;;;;;;6306945;22;20237;-78
2023/12/22 04:52:31;;;;;;;6.83;1.27;;;;;;;;;;6306055;22;20201;-78
2023/12/22 04:54:58;;;;;;;4.27;1.00;;;;;;;;;;6306823;22;20261;-79
2023/12/22 04:57:26;;;;;;;4.97;0.83;;;;;;;;;;6307572;22;20201;-78
2023/12/22 04:59:53;;;;;;;6.63;1.20;;;;;;;;;;6306233;22;20225;-78
2023/12/22 05:02:21;;;;;;;5.23;0.73;;;;;;;;;;6306236;22;20201;-78
2023/12/22 05:04:48;;;;;;;8.47;1.23;;;;;;;;;;6306276;22;20258;-78
2023/12/22 05:07:15;;;;;;;8.40;1.10;;;;;;;;;;6305441;22;20198;-78
2023/12/22 05:09:42;;;;;;;5.57;0.97;;;;;;;;;;6306553;22;20232;-77
2023/12/22 05:12:09;;;;;;;5.63;1.10;;;;;;;;;;6306337;22;20177;-77
2023/12/22 05:14:38;;;;;;;5.37;1.00;;;;;;;;;;6306365;22;20258;-78
2023/12/22 05:17:05;;;;;;;4.10;0.80;;;;;;;;;;6306785;22;20182;-78
2023/12/22 05:19:32;;;;;;;6.30;0.97;;;;;;;;;;6306052;22;20281;-79
2023/12/22 05:22:00;;;;;;;8.10;0.80;;;;;;;;;;6305788;22;20162;-78
2023/12/22 05:24:27;;;;;;;3.93;0.77;;;;;;;;;;6305846;22;20189;-77
2023/12/22 05:26:54;;;;;;;7.03;1.17;;;;;;;;;;6306713;22;20169;-78
2023/12/22 05:29:21;;;;;;;4.27;1.10;;;;;;;;;;6306472;22;20256;-78
2023/12/22 05:31:50;;;;;;;3.97;0.50;;;;;;;;;;6306089;22;20203;-77
2023/12/22 05:34:17;;;;;;;4.47;0.80;;;;;;;;;;6304970;22;20158;-78
2023/12/22 05:36:44;;;;;;;4.37;0.70;;;;;;;;;;6305566;22;20271;-78
2023/12/22 05:39:12;;;;;;;5.50;0.77;;;;;;;;;;6305808;22;20216;-78
2023/12/22 05:41:39;;;;;;;3.90;0.63;;;;;;;;;;6306110;22;20185;-79
2023/12/22 05:44:06;;;;;;;3.13;0.70;;;;;;;;;;6305703;22;20245;-78
2023/12/22 05:46:37;;;;;;;2.13;0.50;;;;;;;;;;6306143;22;21374;-78
2023/12/22 05:49:05;;;;;;;3.47;0.70;;;;;;;;;;6305380;22;20257;-79
2023/12/22 05:51:38;;;;;;;3.47;0.60;;;;;;;;;;6305225;22;20211;-78
2023/12/22 05:54:05;;;;;;;1.93;0.30;;;;;;;;;;6305724;22;20245;-78
2023/12/22 05:56:32;;;;;;;2.03;0.40;;;;;;;;;;6305700;22;20189;-78
2023/12/22 05:58:59;;;;;;;1.43;0.30;;;;;;;;;;6305837;22;20288;-78
2023/12/22 06:01:27;;;;;;;1.27;0.30;;;;;;;;;;6306094;22;20197;-78
2023/12/22 06:03:54;;;;;;;1.83;0.40;;;;;;;;;;6305265;22;20173;-77
2023/12/22 06:06:23;;;;;;;0.50;0.20;;;;;;;;;;6305117;22;20632;-78
2023/12/22 06:08:51;;;;;;;2.07;0.50;;;;;;;;;;6305689;22;20636;-78
2023/12/22 06:11:18;;;;;;;3.50;0.50;;;;;;;;;;6305497;22;20209;-78
2023/12/22 06:13:45;;;;;;;2.37;0.40;;;;;;;;;;6305274;22;20206;-78
2023/12/22 06:16:14;;;;;;;5.93;0.63;;;;;;;;;;6304803;22;20209;-78
2023/12/22 06:18:41;;;;;;;4.13;0.50;;;;;;;;;;6305321;22;20280;-78
2023/12/22 06:21:08;;;;;;;1.30;0.40;;;;;;;;;;6305010;22;20166;-79
2023/12/22 06:23:37;;;;;;;4.20;0.63;;;;;;;;;;6304761;22;20193;-77
2023/12/22 06:26:09;;;;;;;4.93;0.97;;;;;;;;;;6304968;22;20248;-77
2023/12/22 06:28:38;;;;;;;3.73;0.90;;;;;;;;;;6304081;22;20181;-78
2023/12/22 06:31:05;;;;;;;6.40;0.70;;;;;;;;;;6304191;22;20181;-78
2023/12/22 06:33:32;;;;;;;3.93;0.60;;;;;;;;;;6305261;22;20271;-78
2023/12/22 06:35:59;;;;;;;6.47;0.90;;;;;;;;;;6304638;22;20209;-77
2023/12/22 06:38:27;;;;;;;3.70;0.60;;;;;;;;;;6304505;22;20190;-78
2023/12/22 06:40:56;;;;;;;3.10;0.80;;;;;;;;;;6305130;22;20173;-78
2023/12/22 06:43:24;;;;;;;4.27;0.87;;;;;;;;;;6304469;22;20209;-78
2023/12/22 06:45:54;;;;;;;4.53;1.00;;;;;;;;;;6305326;22;20650;-79
2023/12/22 06:48:22;;;;;;;5.93;0.90;;;;;;;;;;6304876;22;20257;-78
2023/12/22 06:50:49;;;;;;;4.23;1.03;;;;;;;;;;6302223;22;20205;-78
2023/12/22 06:53:16;;;;;;;5.67;0.90;;;;;;;;;;6299546;22;20200;-77
2023/12/22 06:55:44;;;;;;;6.43;1.00;;;;;;;;;;6306850;22;20177;-77
2023/12/22 06:58:13;;;;;;;7.40;1.67;;;;;;;;;;6306493;22;20592;-79
2023/12/22 07:00:42;;;;;;;6.60;1.10;;;;;;;;;;6305713;22;20233;-78
2023/12/22 07:03:09;;;;;;;7.67;1.13;;;;;;;;;;6306127;22;20553;-78
2023/12/22 07:05:37;;;;;;;7.90;1.43;;;;;;;;;;6306670;22;20594;-77
2023/12/22 07:08:05;;;;;;;7.97;1.00;;;;;;;;;;6307706;22;20200;-79
2023/12/22 07:10:32;;;;;;;5.30;0.80;;;;;;;;;;6307800;22;20184;-79
2023/12/22 07:12:59;;;;;;;5.73;0.83;;;;;;;;;;6307211;22;20201;-77
2023/12/22 07:15:28;;;;;;;5.93;1.03;;;;;;;;;;6307173;22;20553;-77
2023/12/22 07:17:56;;;;;;;9.60;1.57;;;;;;;;;;6307288;22;20166;-77
2023/12/22 07:20:23;;;;;;;5.10;1.43;;;;;;;;;;6305982;22;20185;-78
2023/12/22 07:22:51;;;;;;;7.23;1.20;;;;;;;;;;6307563;22;20166;-78
2023/12/22 07:25:19;;;;;;;8.33;1.30;;;;;;;;;;6307357;22;20176;-78
2023/12/22 07:27:47;;;;;;;7.00;1.40;;;;;;;;;;6307529;22;20547;-78
2023/12/22 07:30:16;;;;;;;6.53;1.20;;;;;;;;;;6306505;22;20164;-78
2023/12/22 07:32:51;;;;;;;5.77;1.10;;;;;;;;;;6306840;22;20215;-78
2023/12/22 07:35:18;;;;;;;5.53;1.27;;;;;;;;;;6307308;22;20166;-78
2023/12/22 07:37:46;;;;;;;7.03;1.30;;;;;;;;;;6307321;22;20205;-78
2023/12/22 07:40:13;;;;;;;9.63;1.53;;;;;;;;;;6307051;22;20255;-78
2023/12/22 07:42:40;;;;;;;7.67;1.40;;;;;;;;;;6306792;22;20162;-78
2023/12/22 07:45:09;;;;;;;6.97;1.20;;;;;;;;;;6306457;22;20201;-78
2023/12/22 07:47:37;;;;;;;9.77;1.60;;;;;;;;;;6306426;22;20513;-79
2023/12/22 07:50:08;;;;;;;5.73;1.17;;;;;;;;;;6306919;22;20273;-77
2023/12/22 07:52:37;;;;;;;7.60;1.30;;;;;;;;;;6306426;22;20166;-78
2023/12/22 07:55:05;;;;;;;8.17;1.40;;;;;;;;;;6306110;22;20172;-78
2023/12/22 07:57:32;;;;;;;7.63;1.73;;;;;;;;;;6306540;22;20253;-79
2023/12/22 07:59:59;;;;;;;6.50;1.20;;;;;;;;;;6306024;22;20190;-78
2023/12/22 08:02:26;;;;;;;8.00;1.40;;;;;;;;;;6305775;22;20733;-78
2023/12/22 08:04:54;;;;;;;8.93;1.63;;;;;;;;;;6306643;22;20636;-78
2023/12/22 08:07:22;;;;;;;5.30;1.13;;;;;;;;;;6305808;22;20205;-78
2023/12/22 08:09:49;;;;;;;8.33;1.57;;;;;;;;;;6306090;22;20192;-78
2023/12/22 08:12:16;;;;;;;8.33;1.77;;;;;;;;;;6306792;22;20169;-77
2023/12/22 08:14:44;;;;;;;9.17;1.67;;;;;;;;;;6305799;22;20177;-77
2023/12/22 08:17:13;;;;;;;8.87;1.60;;;;;;;;;;6305849;22;20166;-77
2023/12/22 08:19:42;;;;;;;9.20;1.40;;;;;;;;;;6305951;22;20197;-76
2023/12/22 08:22:09;;;;;;;6.83;1.90;;;;;;;;;;6307289;22;20173;-77
2023/12/22 08:24:39;;;;;;;6.10;1.47;;;;;;;;;;6305700;22;20201;-76
2023/12/22 08:27:07;;;;;;;6.53;1.07;;;;;;;;;;6307586;22;20620;-78
2023/12/22 08:29:34;;;;;;;8.80;1.57;;;;;;;;;;6306230;22;20169;-77
2023/12/22 08:32:02;;;;;;;8.57;1.43;;;;;;;;;;6306723;22;20201;-77
2023/12/22 08:34:29;;;;;;;8.33;1.80;;;;;;;;;;6305523;22;20257;-78
2023/12/22 08:36:57;;;;;;;8.03;1.53;;;;;;;;;;6305214;22;20190;-78
2023/12/22 08:39:26;;;;;;;7.27;1.70;;;;;;;;;;6307198;22;20264;-77
2023/12/22 08:41:54;;;;;;;10.00;1.77;;;;;;;;;;6305550;22;20611;-78
2023/12/22 08:44:21;;;;;;;13.47;2.00;;;;;;;;;;6306290;22;20654;-77
2023/12/22 08:46:49;;;;;;;10.33;2.33;;;;;;;;;;6304415;22;20257;-78
2023/12/22 08:49:17;;;;;;;9.43;1.70;;;;;;;;;;6307029;22;20174;-78
2023/12/22 08:51:45;;;;;;;9.70;1.47;;;;;;;;;;6307142;22;20551;-77
2023/12/22 08:54:12;;;;;;;9.30;1.90;;;;;;;;;;6306465;22;20185;-78
2023/12/22 08:56:39;;;;;;;6.53;1.50;;;;;;;;;;6306262;22;20886;-78
2023/12/22 08:59:08;;;;;;;5.90;1.70;;;;;;;;;;6305983;22;20502;-78
2023/12/22 09:01:36;;;;;;;8.87;1.57;;;;;;;;;;6307076;22;20202;-78
2023/12/22 09:04:03;;;;;;;8.53;2.37;;;;;;;;;;6305185;22;20172;-78
2023/12/22 09:06:30;;;;;;;9.77;2.53;;;;;;;;;;6306170;22;20177;-78
2023/12/22 09:08:57;;;;;;;14.07;2.70;;;;;;;;;;6305064;22;20215;-76
2023/12/22 09:11:25;;;;;;;13.00;2.50;;;;;;;;;;6305236;22;20169;-78
2023/12/22 09:13:52;;;;;;;13.83;3.13;;;;;;;;;;6305182;22;20162;-77
2023/12/22 09:16:24;;;;;;;15.63;2.87;;;;;;;;;;6305524;22;20206;-77
2023/12/22 09:18:52;;;;;;;17.00;3.10;;;;;;;;;;6305919;22;20173;-77
2023/12/22 09:21:19;;;;;;;13.53;2.87;;;;;;;;;;6305769;22;20207;-78
2023/12/22 09:23:47;;;;;;;14.57;3.10;;;;;;;;;;6305735;22;20173;-78
2023/12/22 09:26:14;;;;;;;16.17;3.00;;;;;;;;;;6306010;22;20158;-77
2023/12/22 09:28:41;;;;;;;17.20;2.70;;;;;;;;;;6305314;22;20188;-78
2023/12/22 09:31:09;;;;;;;17.87;3.70;;;;;;;;;;6306261;22;20569;-77
2023/12/22 09:33:38;;;;;;;18.87;3.17;;;;;;;;;;6305244;22;20170;-77
2023/12/22 09:36:05;;;;;;;20.03;3.57;;;;;;;;;;6306487;22;20205;-78
2023/12/22 09:38:32;;;;;;;19.33;3.63;;;;;;;;;;6305656;22;20210;-77
2023/12/22 09:41:00;;;;;;;17.40;3.67;;;;;;;;;;6305941;22;20197;-77
2023/12/22 09:43:27;;;;;;;21.20;3.47;;;;;;;;;;6305587;22;20177;-77
2023/12/22 09:45:54;;;;;;;22.67;3.97;;;;;;;;;;6304595;22;20664;-77
2023/12/22 09:48:27;;;;;;;20.10;3.83;;;;;;;;;;6305263;22;20193;-77
2023/12/22 09:50:55;;;;;;;20.20;4.27;;;;;;;;;;6304877;22;20514;-78
2023/12/22 09:53:23;;;;;;;18.33;3.07;;;;;;;;;;6304302;22;20201;-77
2023/12/22 09:55:51;;;;;;;21.43;3.80;;;;;;;;;;6303872;22;20201;-76
2023/12/22 09:58:18;;;;;;;22.17;3.53;;;;;;;;;;6305125;22;20227;-77
2023/12/22 10:00:46;;;;;;;20.43;3.63;;;;;;;;;;6303999;22;20209;-77
2023/12/22 10:03:14;;;;;;;20.40;3.57;;;;;;;;;;6305491;22;20166;-78
2023/12/22 10:05:43;;;;;;;20.23;3.77;;;;;;;;;;6305031;22;20544;-76
2023/12/22 10:08:11;;;;;;;21.83;3.83;;;;;;;;;;6304854;22;20170;-78
2023/12/22 10:10:40;;;;;;;17.43;3.80;;;;;;;;;;6303722;22;20193;-77
2023/12/22 10:13:09;;;;;;;22.33;3.60;;;;;;;;;;6304453;22;20170;-77
2023/12/22 10:15:38;;;;;;;21.57;4.27;;;;;;;;;;6304524;22;20173;-77
2023/12/22 10:18:05;;;;;;;23.40;4.13;;;;;;;;;;6304741;22;20542;-78
2023/12/22 10:20:34;;;;;;;25.00;3.87;;;;;;;;;;6306711;22;20309;-80
2023/12/22 10:23:01;;;;;;;23.00;4.17;;;;;;;;;;6307142;22;20202;-78
2023/12/22 10:25:32;;;;;;;19.93;4.77;;;;;;;;;;6307205;22;20248;-76
2023/12/22 10:27:59;;;;;;;25.20;4.63;;;;;;;;;;6307698;22;20170;-78
2023/12/22 10:30:27;;;;;;;21.03;4.20;;;;;;;;;;6306924;22;20223;-78
2023/12/22 10:32:55;;;;;;;27.73;4.80;;;;;;;;;;6307563;22;20203;-77
2023/12/22 10:35:22;;;;;;;28.93;4.30;;;;;;;;;;6306413;22;20166;-77
2023/12/22 10:37:52;;;;;;;22.93;4.27;;;;;;;;;;6306315;22;20639;-77
2023/12/22 10:40:19;;;;;;;25.23;4.80;;;;;;;;;;6306206;22;20693;-78
2023/12/22 10:42:48;;;;;;;24.97;4.43;;;;;;;;;;6306429;22;20170;-79
2023/12/22 10:45:17;;;;;;;26.27;4.13;;;;;;;;;;6306982;22;20513;-78
2023/12/22 10:47:44;;;;;;;29.67;5.17;;;;;;;;;;6306421;22;20170;-77
2023/12/22 10:50:14;;;;;;;25.37;4.77;;;;;;;;;;6306811;22;20631;-77
2023/12/22 10:52:41;;;;;;;18.33;3.93;;;;;;;;;;6306695;22;20166;-79
2023/12/22 10:55:09;;;;;;;22.30;4.10;;;;;;;;;;6305487;22;20252;-78
2023/12/22 10:57:37;;;;;;;30.33;5.30;;;;;;;;;;6307177;22;20162;-78
2023/12/22 11:00:08;;;;;;;23.50;4.23;;;;;;;;;;6306515;22;20602;-78
2023/12/22 11:02:36;;;;;;;26.57;5.00;;;;;;;;;;6306821;22;20166;-78
2023/12/22 11:05:05;;;;;;;25.50;4.37;;;;;;;;;;6306571;22;20177;-79
2023/12/22 11:07:34;;;;;;;22.97;4.57;;;;;;;;;;6305963;22;20562;-79
2023/12/22 11:10:04;;;;;;;19.27;3.40;;;;;;;;;;6307024;22;20174;-79
2023/12/22 11:12:31;;;;;;;19.97;4.50;;;;;;;;;;6306307;22;20166;-78
2023/12/22 11:14:59;;;;;;;21.63;4.20;;;;;;;;;;6306789;22;20258;-78
2023/12/22 11:17:28;;;;;;;25.00;4.03;;;;;;;;;;6306818;22;20170;-79
2023/12/22 11:19:55;;;;;;;23.80;4.47;;;;;;;;;;6306058;22;20243;-78
2023/12/22 11:22:23;;;;;;;19.43;3.80;;;;;;;;;;6304770;22;20867;-79
2023/12/22 11:24:51;;;;;;;27.17;4.70;;;;;;;;;;6305300;22;20245;-79
2023/12/22 11:27:19;;;;;;;23.27;4.23;;;;;;;;;;6305738;22;20231;-78
2023/12/22 11:29:47;;;;;;;24.13;4.30;;;;;;;;;;6305611;22;20166;-78
2023/12/22 11:32:16;;;;;;;25.97;4.87;;;;;;;;;;6305901;22;20662;-78
2023/12/22 11:34:45;;;;;;;21.40;4.07;;;;;;;;;;6305916;22;20707;-78
2023/12/22 11:37:13;;;;;;;21.33;4.57;;;;;;;;;;6305628;22;20173;-79
2023/12/22 11:39:40;;;;;;;21.87;3.73;;;;;;;;;;6305820;22;20174;-81
2023/12/22 11:42:08;;;;;;;16.80;3.33;;;;;;;;;;6306307;22;20170;-79
2023/12/22 11:44:36;;;;;;;20.13;4.13;;;;;;;;;;6308559;22;20166;-78
2023/12/22 11:47:07;;;;;;;15.00;3.17;;;;;;;;;;6307581;22;20169;-78
2023/12/22 11:49:35;;;;;;;19.60;3.27;;;;;;;;;;6306674;22;20197;-78
2023/12/22 11:52:12;;;;;;;21.00;3.00;;;;;;;;;;6306002;22;20166;-78
2023/12/22 11:54:46;;;;;;;15.87;3.00;;;;;;;;;;6306375;22;20194;-79
2023/12/22 11:57:33;;;;;;;15.60;3.33;;;;;;;;;;6304863;22;20204;-79
2023/12/22 12:00:03;;;;;;;22.40;3.70;;;;;;;;;;6304763;22;20746;-79
2023/12/22 12:02:32;;;;;;;17.03;3.63;;;;;;;;;;6305973;22;20568;-79
2023/12/22 12:05:00;;;;;;;18.13;3.33;;;;;;;;;;6305072;22;20166;-78
2023/12/22 12:07:49;;;;;;;16.17;3.20;;;;;;;;;;6305299;22;20166;-78
2023/12/22 12:10:31;;;;;;;18.20;3.20;;;;;;;;;;6304944;22;20252;-77
2023/12/22 12:13:06;;;;;;;18.93;3.03;;;;;;;;;;6304736;22;20674;-79
2023/12/22 12:15:34;;;;;;;18.10;3.13;;;;;;;;;;6306166;22;20162;-78
2023/12/22 12:18:02;;;;;;;12.67;2.83;;;;;;;;;;6304150;22;20174;-79
2023/12/22 12:20:29;;;;;;;14.47;2.60;;;;;;;;;;6305061;22;20234;-79
2023/12/22 12:22:58;;;;;;;14.40;2.67;;;;;;;;;;6304649;22;20208;-79
2023/12/22 12:25:26;;;;;;;16.87;3.00;;;;;;;;;;6305513;22;20249;-80
2023/12/22 12:28:02;;;;;;;15.27;3.10;;;;;;;;;;6304509;22;20666;-79
2023/12/22 12:30:29;;;;;;;13.93;3.07;;;;;;;;;;6306157;22;20636;-79
2023/12/22 12:33:02;;;;;;;13.00;2.97;;;;;;;;;;6306197;22;20271;-78
2023/12/22 12:35:30;;;;;;;13.23;2.60;;;;;;;;;;6305782;22;20899;-80
2023/12/22 12:37:59;;;;;;;11.60;3.00;;;;;;;;;;6305728;22;20651;-79
2023/12/22 12:40:26;;;;;;;12.93;2.20;;;;;;;;;;6305424;22;20280;-79
2023/12/22 12:42:53;;;;;;;12.10;2.80;;;;;;;;;;6306317;22;20169;-80
2023/12/22 12:45:24;;;;;;;12.90;2.23;;;;;;;;;;6306294;22;20206;-78
2023/12/22 12:47:56;;;;;;;12.80;2.60;;;;;;;;;;6307069;22;20189;-79
2023/12/22 12:50:24;;;;;;;13.13;2.73;;;;;;;;;;6304802;22;20174;-80
2023/12/22 12:52:53;;;;;;;15.20;2.50;;;;;;;;;;6305024;22;20170;-79
2023/12/22 12:55:22;;;;;;;15.90;2.90;;;;;;;;;;6305384;22;20174;-80
2023/12/22 12:57:50;;;;;;;15.33;2.50;;;;;;;;;;6305680;22;20170;-78
2023/12/22 13:00:18;;;;;;;11.43;2.60;;;;;;;;;;6305658;22;20200;-79
2023/12/22 13:02:45;;;;;;;11.23;2.27;;;;;;;;;;6305410;22;20208;-80
2023/12/22 13:05:21;;;;;;;13.73;2.23;;;;;;;;;;6305499;22;20173;-79
2023/12/22 13:07:49;;;;;;;11.17;1.90;;;;;;;;;;6305829;22;20172;-79
2023/12/22 13:10:24;;;;;;;8.70;2.07;;;;;;;;;;6305684;22;20644;-79
2023/12/22 13:12:53;;;;;;;7.23;1.43;;;;;;;;;;6305335;22;20248;-79
2023/12/22 13:15:21;;;;;;;10.70;2.27;;;;;;;;;;6305710;22;20742;-79
2023/12/22 13:17:49;;;;;;;11.07;2.00;;;;;;;;;;6305523;22;20253;-79
2023/12/22 13:20:17;;;;;;;7.63;1.70;;;;;;;;;;6306384;22;20170;-78
2023/12/22 13:22:44;;;;;;;8.80;1.77;;;;;;;;;;6304826;22;20193;-79
2023/12/22 13:25:12;;;;;;;8.90;1.70;;;;;;;;;;6305037;22;20244;-80
2023/12/22 13:27:47;;;;;;;8.43;1.87;;;;;;;;;;6305284;22;20166;-78
2023/12/22 13:30:14;;;;;;;10.23;1.87;;;;;;;;;;6305612;22;20169;-78
2023/12/22 13:32:42;;;;;;;10.33;1.93;;;;;;;;;;6304945;22;20197;-79
2023/12/22 13:35:10;;;;;;;11.90;2.63;;;;;;;;;;6305429;22;20624;-79
2023/12/22 13:37:42;;;;;;;10.03;2.03;;;;;;;;;;6305447;22;20628;-78
2023/12/22 13:40:09;;;;;;;10.70;2.00;;;;;;;;;;6305725;22;20170;-78
2023/12/22 13:42:37;;;;;;;13.87;2.53;;;;;;;;;;6305195;22;20201;-79
2023/12/22 13:45:11;;;;;;;9.47;2.33;;;;;;;;;;6303450;22;20478;-79
2023/12/22 13:47:41;;;;;;;11.73;2.23;;;;;;;;;;6303586;22;20499;-77
2023/12/22 13:50:15;;;;;;;10.93;1.93;;;;;;;;;;6305393;22;20200;-79
2023/12/22 13:52:43;;;;;;;10.97;2.30;;;;;;;;;;6304709;22;20582;-79
2023/12/22 13:55:12;;;;;;;15.57;2.60;;;;;;;;;;6304606;22;20178;-78
2023/12/22 13:57:39;;;;;;;14.60;2.50;;;;;;;;;;6304811;22;20877;-78
2023/12/22 14:00:22;;;;;;;12.23;2.00;;;;;;;;;;6305252;22;20194;-78
2023/12/22 14:02:50;;;;;;;8.87;2.10;;;;;;;;;;6303952;22;20663;-79
2023/12/22 14:05:18;;;;;;;11.47;2.33;;;;;;;;;;6304893;22;20176;-77
2023/12/22 14:07:45;;;;;;;14.47;2.50;;;;;;;;;;6304878;22;20237;-77
2023/12/22 14:10:13;;;;;;;13.37;2.50;;;;;;;;;;6304629;22;20651;-79
2023/12/22 14:12:40;;;;;;;11.37;2.70;;;;;;;;;;6305397;22;20201;-78
2023/12/22 14:15:08;;;;;;;12.00;2.00;;;;;;;;;;6305251;22;20166;-79
2023/12/22 14:17:35;;;;;;;9.30;2.10;;;;;;;;;;6304484;22;21329;-79
2023/12/22 14:20:04;;;;;;;11.17;2.53;;;;;;;;;;6305164;22;20189;-78
2023/12/22 14:22:31;;;;;;;14.13;2.47;;;;;;;;;;6304557;22;20201;-78
2023/12/22 14:24:59;;;;;;;10.77;2.30;;;;;;;;;;6304937;22;20215;-79
2023/12/22 14:27:26;;;;;;;15.43;2.63;;;;;;;;;;6305203;22;20166;-78
2023/12/22 14:29:53;;;;;;;13.03;2.23;;;;;;;;;;6304578;22;20201;-78
2023/12/22 14:32:20;;;;;;;10.93;2.20;;;;;;;;;;6303827;22;20220;-78
2023/12/22 14:34:48;;;;;;;11.80;3.10;;;;;;;;;;6303046;22;20197;-79
2023/12/22 14:37:19;;;;;;;12.57;2.03;;;;;;;;;;6302942;22;20603;-78
2023/12/22 14:39:47;;;;;;;17.63;2.90;;;;;;;;;;6303979;22;20623;-78
2023/12/22 14:42:14;;;;;;;12.23;2.50;;;;;;;;;;6304551;22;20236;-78